createdAt,value
2018-08-30T00:01:51.767Z,94.60
2018-08-30T00:04:20.120Z,95.50
2018-08-30T00:06:48.459Z,96.00
2018-08-30T00:09:16.771Z,96.40
2018-08-30T00:11:45.112Z,96.90
2018-08-30T00:14:13.432Z,97.50
2018-08-30T00:16:41.811Z,98.00
2018-08-30T00:19:10.196Z,98.10
2018-08-30T00:21:38.553Z,98.40
2018-08-30T00:24:06.914Z,98.00
2018-08-30T00:26:35.268Z,97.70
2018-08-30T00:29:03.696Z,97.70
2018-08-30T00:31:32.052Z,98.10
2018-08-30T00:34:00.397Z,98.50
2018-08-30T00:36:28.760Z,98.30
2018-08-30T00:38:57.119Z,98.30
2018-08-30T00:41:25.498Z,98.20
2018-08-30T00:43:53.839Z,98.20
2018-08-30T00:46:22.160Z,98.40
2018-08-30T00:48:50.516Z,98.60
2018-08-30T00:51:18.823Z,98.60
2018-08-30T00:53:47.165Z,98.70
2018-08-30T00:56:15.476Z,98.80
2018-08-30T00:58:43.831Z,98.80
2018-08-30T01:01:12.136Z,99.00
2018-08-30T01:03:40.492Z,99.10
2018-08-30T01:06:08.842Z,99.20
2018-08-30T01:08:37.215Z,99.40
2018-08-30T01:11:05.573Z,99.30
2018-08-30T01:13:33.936Z,99.40
2018-08-30T01:16:02.259Z,99.50
2018-08-30T01:18:30.680Z,99.60
2018-08-30T01:20:59.007Z,99.60
2018-08-30T01:23:27.404Z,99.40
2018-08-30T01:25:55.760Z,99.30
2018-08-30T01:28:24.120Z,99.40
2018-08-30T01:30:52.488Z,99.30
2018-08-30T01:33:20.868Z,99.40
2018-08-30T01:35:49.208Z,98.80
2018-08-30T01:38:17.660Z,98.70
2018-08-30T01:40:46.029Z,98.30
2018-08-30T01:43:14.388Z,98.20
2018-08-30T01:45:42.712Z,98.10
2018-08-30T01:48:11.088Z,98.10
2018-08-30T01:50:39.408Z,98.00
2018-08-30T01:53:07.852Z,98.00
2018-08-30T01:55:36.535Z,97.90
2018-08-30T01:58:04.935Z,97.80
2018-08-30T02:00:33.260Z,97.50
2018-08-30T02:03:01.629Z,97.30
2018-08-30T02:05:29.984Z,97.40
2018-08-30T02:07:58.344Z,97.40
2018-08-30T02:10:26.684Z,97.50
2018-08-30T02:12:55.061Z,97.70
2018-08-30T02:15:23.396Z,97.80
2018-08-30T02:17:51.752Z,97.90
2018-08-30T02:20:20.072Z,97.90
2018-08-30T02:22:48.436Z,97.70
2018-08-30T02:25:16.787Z,97.80
2018-08-30T02:27:45.148Z,97.90
2018-08-30T02:30:13.530Z,97.90
2018-08-30T02:32:41.889Z,98.00
2018-08-30T02:35:10.248Z,98.10
2018-08-30T02:37:38.638Z,98.10
2018-08-30T02:40:07.064Z,97.90
2018-08-30T02:42:35.412Z,97.90
2018-08-30T02:45:03.824Z,97.90
2018-08-30T02:47:32.139Z,97.90
2018-08-30T02:50:00.464Z,97.50
2018-08-30T02:52:29.004Z,97.50
2018-08-30T02:54:57.345Z,97.50
2018-08-30T02:57:25.708Z,97.50
2018-08-30T02:59:54.087Z,97.60
2018-08-30T03:02:22.440Z,97.80
2018-08-30T03:04:50.830Z,97.80
2018-08-30T03:07:19.157Z,98.00
2018-08-30T03:09:47.524Z,98.00
2018-08-30T03:12:15.856Z,98.00
2018-08-30T03:14:45.641Z,98.00
2018-08-30T03:17:13.975Z,98.10
2018-08-30T03:19:42.376Z,98.10
2018-08-30T03:22:10.748Z,98.10
2018-08-30T03:24:39.104Z,98.50
2018-08-30T03:27:07.497Z,98.10
2018-08-30T03:29:35.856Z,98.20
2018-08-30T03:32:04.197Z,97.90
2018-08-30T03:34:32.559Z,97.90
2018-08-30T03:37:00.900Z,97.80
2018-08-30T03:39:29.268Z,97.70
2018-08-30T03:41:57.597Z,97.70
2018-08-30T03:44:25.969Z,97.70
2018-08-30T03:46:54.347Z,97.70
2018-08-30T03:49:22.760Z,97.80
2018-08-30T03:51:51.111Z,97.80
2018-08-30T03:54:19.492Z,97.80
2018-08-30T03:56:47.837Z,97.90
2018-08-30T03:59:16.216Z,97.90
2018-08-30T04:01:44.572Z,98.00
2018-08-30T04:04:12.960Z,98.00
2018-08-30T04:06:41.308Z,97.90
2018-08-30T04:09:09.954Z,97.80
2018-08-30T04:11:38.296Z,97.90
2018-08-30T04:14:06.760Z,97.90
2018-08-30T04:16:35.108Z,97.90
2018-08-30T04:19:05.907Z,98.00
2018-08-30T04:21:34.964Z,97.90
2018-08-30T04:24:04.437Z,97.80
2018-08-30T04:26:32.779Z,97.80
2018-08-30T04:29:01.980Z,97.80
2018-08-30T04:31:30.511Z,97.90
2018-08-30T04:33:58.855Z,97.70
2018-08-30T04:36:27.192Z,97.80
2018-08-30T04:38:56.640Z,97.50
2018-08-30T04:41:24.959Z,97.30
2018-08-30T04:43:53.335Z,97.00
2018-08-30T04:46:21.684Z,97.00
2018-08-30T04:48:50.048Z,96.90
2018-08-30T04:51:18.376Z,96.70
2018-08-30T04:53:46.746Z,96.70
2018-08-30T04:56:15.072Z,96.50
2018-08-30T04:58:43.437Z,96.40
2018-08-30T05:01:11.769Z,96.40
2018-08-30T05:03:40.128Z,96.40
2018-08-30T05:06:08.452Z,96.40
2018-08-30T05:08:36.799Z,96.50
2018-08-30T05:11:05.380Z,96.40
2018-08-30T05:13:33.749Z,96.50
2018-08-30T05:16:02.126Z,96.30
2018-08-30T05:18:30.519Z,96.20
2018-08-30T05:20:58.880Z,96.30
2018-08-30T05:23:27.244Z,96.20
2018-08-30T05:25:55.608Z,96.20
2018-08-30T05:28:23.952Z,96.10
2018-08-30T05:30:52.308Z,95.70
2018-08-30T05:33:20.630Z,95.60
2018-08-30T05:35:49.160Z,95.70
2018-08-30T05:38:17.448Z,95.70
2018-08-30T05:40:45.819Z,95.70
2018-08-30T05:43:14.151Z,95.60
2018-08-30T05:45:42.996Z,95.60
2018-08-30T05:48:11.328Z,95.80
2018-08-30T05:50:39.700Z,96.10
2018-08-30T05:53:08.811Z,95.50
2018-08-30T05:55:37.207Z,95.50
2018-08-30T05:58:05.581Z,95.40
2018-08-30T06:00:33.936Z,95.50
2018-08-30T06:03:02.276Z,95.60
2018-08-30T06:05:30.640Z,95.80
2018-08-30T06:07:58.972Z,95.90
2018-08-30T06:10:27.344Z,95.90
2018-08-30T06:12:55.730Z,96.00
2018-08-30T06:15:24.052Z,96.10
2018-08-30T06:17:52.375Z,96.20
2018-08-30T06:20:20.735Z,96.30
2018-08-30T06:22:49.097Z,96.30
2018-08-30T06:25:17.499Z,96.40
2018-08-30T06:27:45.840Z,96.60
2018-08-30T06:30:14.208Z,96.50
2018-08-30T06:32:42.668Z,96.40
2018-08-30T06:35:11.054Z,96.30
2018-08-30T06:37:39.450Z,96.40
2018-08-30T06:40:07.864Z,96.50
2018-08-30T06:42:36.200Z,96.50
2018-08-30T06:45:04.608Z,96.50
2018-08-30T06:47:32.951Z,96.50
2018-08-30T06:50:01.316Z,96.40
2018-08-30T06:52:29.656Z,96.40
2018-08-30T06:54:58.061Z,96.30
2018-08-30T06:57:26.439Z,96.20
2018-08-30T06:59:54.815Z,95.80
2018-08-30T07:02:23.180Z,95.50
2018-08-30T07:04:51.582Z,95.40
2018-08-30T07:07:19.932Z,95.50
2018-08-30T07:09:48.295Z,95.80
2018-08-30T07:12:16.669Z,96.10
2018-08-30T07:14:45.080Z,96.30
2018-08-30T07:17:13.404Z,96.80
2018-08-30T07:19:41.758Z,97.30
2018-08-30T07:22:10.164Z,97.30
2018-08-30T07:24:38.486Z,97.40
2018-08-30T07:27:06.849Z,98.20
2018-08-30T07:29:35.176Z,99.30
2018-08-30T07:32:03.637Z,99.90
2018-08-30T07:34:31.990Z,99.90
2018-08-30T07:37:00.348Z,99.90
2018-08-30T07:39:28.668Z,99.90
2018-08-30T07:41:57.035Z,99.90
2018-08-30T07:44:25.490Z,99.90
2018-08-30T07:46:53.736Z,99.90
2018-08-30T07:49:22.068Z,99.90
2018-08-30T07:51:50.433Z,99.90
2018-08-30T07:54:18.762Z,99.90
2018-08-30T07:56:47.144Z,99.90
2018-08-30T07:59:15.458Z,99.90
2018-08-30T08:01:43.834Z,99.90
2018-08-30T08:04:12.165Z,99.90
2018-08-30T08:06:40.527Z,99.90
2018-08-30T08:09:09.920Z,99.90
2018-08-30T08:11:38.303Z,99.90
2018-08-30T08:14:06.988Z,99.90
2018-08-30T08:16:35.508Z,99.90
2018-08-30T08:19:03.910Z,99.90
2018-08-30T08:21:32.256Z,99.90
2018-08-30T08:24:00.634Z,99.90
2018-08-30T08:26:29.000Z,99.90
2018-08-30T08:28:57.338Z,99.90
2018-08-30T08:31:25.716Z,99.90
2018-08-30T08:33:54.051Z,99.90
2018-08-30T08:36:22.416Z,99.60
2018-08-30T08:38:50.758Z,99.40
2018-08-30T08:41:19.139Z,97.80
2018-08-30T08:43:47.483Z,97.50
2018-08-30T08:46:15.843Z,97.60
2018-08-30T08:48:44.188Z,97.10
2018-08-30T08:51:12.708Z,97.50
2018-08-30T08:53:40.986Z,98.00
2018-08-30T08:56:09.381Z,97.70
2018-08-30T08:58:37.759Z,96.90
2018-08-30T09:01:06.090Z,97.10
2018-08-30T09:03:34.497Z,97.10
2018-08-30T09:06:02.852Z,96.90
2018-08-30T09:08:31.228Z,96.90
2018-08-30T09:10:59.579Z,97.20
2018-08-30T09:13:27.948Z,96.90
2018-08-30T09:15:56.300Z,96.70
2018-08-30T09:18:24.733Z,96.70
2018-08-30T09:20:53.104Z,96.80
2018-08-30T09:23:21.581Z,96.20
2018-08-30T09:25:49.921Z,96.30
2018-08-30T09:28:18.295Z,96.00
2018-08-30T09:30:46.637Z,96.00
2018-08-30T09:33:14.991Z,94.90
2018-08-30T09:35:43.356Z,93.80
2018-08-30T09:38:11.776Z,94.40
2018-08-30T09:40:40.131Z,95.10
2018-08-30T09:43:08.627Z,94.90
2018-08-30T09:45:36.964Z,93.40
2018-08-30T09:48:05.441Z,93.00
2018-08-30T09:50:33.809Z,90.20
2018-08-30T09:53:02.190Z,90.60
2018-08-30T09:55:30.537Z,89.50
2018-08-30T09:57:58.960Z,89.10
2018-08-30T10:00:32.676Z,90.30
2018-08-30T10:03:01.053Z,91.00
2018-08-30T10:05:29.429Z,90.60
2018-08-30T10:07:57.816Z,89.90
2018-08-30T10:10:26.147Z,89.90
2018-08-30T10:12:54.526Z,89.20
2018-08-30T10:15:22.855Z,89.10
2018-08-30T10:17:51.232Z,87.30
2018-08-30T10:20:19.569Z,88.10
2018-08-30T10:22:47.961Z,86.90
2018-08-30T10:25:16.316Z,86.00
2018-08-30T10:27:44.688Z,86.20
2018-08-30T10:30:13.016Z,84.80
2018-08-30T10:32:41.369Z,86.30
2018-08-30T10:35:09.712Z,86.00
2018-08-30T10:37:38.084Z,85.40
2018-08-30T10:40:06.775Z,83.30
2018-08-30T10:42:35.136Z,82.90
2018-08-30T10:45:03.520Z,83.30
2018-08-30T10:47:31.878Z,84.00
2018-08-30T10:50:00.223Z,83.50
2018-08-30T10:52:28.608Z,82.90
2018-08-30T10:54:56.931Z,83.30
2018-08-30T10:57:25.297Z,82.30
2018-08-30T10:59:53.659Z,79.90
2018-08-30T11:02:22.563Z,79.30
2018-08-30T11:04:50.971Z,79.60
2018-08-30T11:07:19.364Z,79.50
2018-08-30T11:09:47.743Z,79.20
2018-08-30T11:12:16.088Z,77.80
2018-08-30T11:14:44.505Z,76.90
2018-08-30T11:17:12.867Z,75.70
2018-08-30T11:19:41.216Z,76.40
2018-08-30T11:22:09.580Z,75.80
2018-08-30T11:24:37.954Z,76.20
2018-08-30T11:27:06.313Z,76.40
2018-08-30T11:29:34.720Z,76.40
2018-08-30T11:32:03.063Z,75.50
2018-08-30T11:34:31.420Z,75.60
2018-08-30T11:36:59.756Z,74.80
2018-08-30T11:39:28.119Z,75.10
2018-08-30T11:41:56.440Z,75.80
2018-08-30T11:44:24.801Z,75.70
2018-08-30T11:46:53.136Z,74.60
2018-08-30T11:49:21.499Z,75.80
2018-08-30T11:51:49.864Z,76.70
2018-08-30T11:54:18.644Z,76.80
2018-08-30T11:56:46.975Z,78.10
2018-08-30T11:59:15.357Z,78.30
2018-08-30T12:01:43.693Z,78.10
2018-08-30T12:04:12.186Z,76.60
2018-08-30T12:06:40.553Z,76.70
2018-08-30T12:09:10.084Z,76.40
2018-08-30T12:11:39.764Z,74.50
2018-08-30T12:14:08.128Z,75.00
2018-08-30T12:16:36.473Z,75.00
2018-08-30T12:19:04.961Z,73.30
2018-08-30T12:21:33.293Z,72.20
2018-08-30T12:24:01.689Z,73.10
2018-08-30T12:26:30.036Z,71.90
2018-08-30T12:28:58.469Z,71.10
2018-08-30T12:31:26.863Z,71.30
2018-08-30T12:33:55.219Z,71.40
2018-08-30T12:36:23.598Z,71.00
2018-08-30T12:38:51.924Z,69.20
2018-08-30T12:41:20.350Z,70.50
2018-08-30T12:43:48.705Z,68.00
2018-08-30T12:46:17.036Z,68.10
2018-08-30T12:48:45.412Z,67.10
2018-08-30T12:51:13.858Z,66.20
2018-08-30T12:53:42.252Z,66.60
2018-08-30T12:56:10.634Z,66.90
2018-08-30T12:58:38.982Z,66.70
2018-08-30T13:01:07.411Z,65.60
2018-08-30T13:03:35.736Z,65.90
2018-08-30T13:06:04.220Z,66.30
2018-08-30T13:08:32.648Z,66.80
2018-08-30T13:11:01.056Z,66.30
2018-08-30T13:13:29.379Z,67.00
2018-08-30T13:15:57.647Z,66.60
2018-08-30T13:18:26.092Z,65.00
2018-08-30T13:20:54.442Z,64.70
2018-08-30T13:23:22.765Z,63.80
2018-08-30T13:25:51.375Z,63.00
2018-08-30T13:28:19.846Z,63.30
2018-08-30T13:30:48.118Z,61.70
2018-08-30T13:33:19.904Z,62.00
2018-08-30T13:35:44.885Z,62.30
2018-08-30T13:38:13.348Z,61.50
2018-08-30T13:40:41.866Z,61.50
2018-08-30T13:43:10.195Z,62.40
2018-08-30T13:45:38.431Z,62.10
2018-08-30T13:48:07.199Z,61.40
2018-08-30T13:50:35.592Z,60.90
2018-08-30T13:53:03.936Z,59.90
2018-08-30T13:55:32.219Z,60.20
2018-08-30T13:58:00.604Z,60.60
2018-08-30T14:00:29.451Z,59.30
2018-08-30T14:02:57.180Z,59.60
2018-08-30T14:05:25.653Z,60.00
2018-08-30T14:07:54.239Z,59.80
2018-08-30T14:10:22.875Z,59.90
2018-08-30T14:12:51.095Z,59.40
2018-08-30T14:15:19.681Z,59.80
2018-08-30T14:17:47.581Z,59.70
2018-08-30T14:20:15.908Z,59.30
2018-08-30T14:22:44.412Z,59.70
2018-08-30T14:25:12.677Z,59.80
2018-08-30T14:27:41.117Z,59.50
2018-08-30T14:30:09.444Z,59.70
2018-08-30T14:32:37.824Z,59.20
2018-08-30T14:35:06.223Z,59.30
2018-08-30T14:37:34.582Z,60.00
2018-08-30T14:40:02.959Z,59.60
2018-08-30T14:42:31.391Z,59.50
2018-08-30T14:44:59.702Z,59.20
2018-08-30T14:47:28.181Z,59.20
2018-08-30T14:49:56.487Z,59.40
2018-08-30T14:52:24.871Z,60.20
2018-08-30T14:54:53.660Z,60.10
2018-08-30T14:57:22.040Z,60.30
2018-08-30T14:59:50.376Z,59.90
2018-08-30T15:02:18.867Z,59.90
2018-08-30T15:04:47.177Z,60.20
2018-08-30T15:07:15.552Z,60.40
2018-08-30T15:09:43.912Z,60.40
2018-08-30T15:12:12.320Z,59.90
2018-08-30T15:14:40.668Z,59.70
2018-08-30T15:17:09.113Z,60.10
2018-08-30T15:19:37.424Z,60.30
2018-08-30T15:22:05.995Z,60.20
2018-08-30T15:24:34.285Z,60.20
2018-08-30T15:27:02.708Z,61.10
2018-08-30T15:29:31.109Z,61.10
2018-08-30T15:31:59.535Z,61.30
2018-08-30T15:34:27.797Z,61.60
2018-08-30T15:36:56.187Z,61.30
2018-08-30T15:39:24.553Z,61.90
2018-08-30T15:41:52.924Z,62.20
2018-08-30T15:44:21.284Z,62.30
2018-08-30T15:46:49.648Z,62.50
2018-08-30T15:49:18.025Z,62.60
2018-08-30T15:51:46.403Z,62.70
2018-08-30T15:54:14.738Z,62.90
2018-08-30T15:56:43.212Z,63.10
2018-08-30T15:59:11.639Z,62.80
2018-08-30T16:01:39.995Z,63.10
2018-08-30T16:04:08.311Z,63.90
2018-08-30T16:06:36.706Z,65.00
2018-08-30T16:09:07.668Z,66.40
2018-08-30T16:11:36.271Z,67.30
2018-08-30T16:14:04.543Z,68.00
2018-08-30T16:16:32.916Z,68.00
2018-08-30T16:19:01.279Z,68.80
2018-08-30T16:21:29.618Z,69.50
2018-08-30T16:23:58.029Z,69.90
2018-08-30T16:26:26.381Z,70.60
2018-08-30T16:28:54.764Z,71.70
2018-08-30T16:31:23.189Z,71.80
2018-08-30T16:33:51.561Z,72.10
2018-08-30T16:36:19.922Z,72.10
2018-08-30T16:38:48.304Z,72.60
2018-08-30T16:41:16.685Z,73.40
2018-08-30T16:43:45.068Z,73.90
2018-08-30T16:46:13.418Z,74.70
2018-08-30T16:48:41.800Z,74.90
2018-08-30T16:51:10.158Z,75.50
2018-08-30T16:53:39.545Z,76.60
2018-08-30T16:56:07.951Z,76.00
2018-08-30T16:58:36.361Z,75.90
2018-08-30T17:01:04.767Z,75.60
2018-08-30T17:03:33.148Z,76.10
2018-08-30T17:06:01.485Z,76.40
2018-08-30T17:08:29.886Z,76.70
2018-08-30T17:10:58.219Z,76.80
2018-08-30T17:13:26.643Z,76.80
2018-08-30T17:15:54.945Z,77.20
2018-08-30T17:18:23.319Z,77.50
2018-08-30T17:20:53.327Z,77.90
2018-08-30T17:23:21.749Z,77.90
2018-08-30T17:25:50.113Z,77.90
2018-08-30T17:28:18.564Z,77.80
2018-08-30T17:30:46.922Z,77.80
2018-08-30T17:33:15.392Z,78.20
2018-08-30T17:35:43.769Z,78.80
2018-08-30T17:38:12.140Z,79.60
2018-08-30T17:40:40.657Z,80.00
2018-08-30T17:43:09.021Z,80.40
2018-08-30T17:45:37.484Z,80.80
2018-08-30T17:48:05.996Z,81.30
2018-08-30T17:50:35.463Z,81.70
2018-08-30T17:53:03.843Z,82.00
2018-08-30T17:55:32.282Z,82.30
2018-08-30T17:58:00.760Z,82.50
2018-08-30T18:00:29.153Z,82.60
2018-08-30T18:02:57.539Z,83.10
2018-08-30T18:05:25.977Z,83.40
2018-08-30T18:07:54.361Z,84.00
2018-08-30T18:10:23.133Z,84.40
2018-08-30T18:12:51.502Z,84.70
2018-08-30T18:15:19.888Z,85.10
2018-08-30T18:17:48.225Z,85.50
2018-08-30T18:20:16.604Z,85.50
2018-08-30T18:22:44.979Z,85.80
2018-08-30T18:25:13.333Z,85.80
2018-08-30T18:27:41.668Z,85.90
2018-08-30T18:30:10.645Z,86.00
2018-08-30T18:32:39.062Z,86.10
2018-08-30T18:35:08.933Z,86.40
2018-08-30T18:37:37.404Z,86.40
2018-08-30T18:40:06.660Z,86.60
2018-08-30T18:42:35.020Z,86.60
2018-08-30T18:45:03.410Z,86.60
2018-08-30T18:47:31.764Z,86.80
2018-08-30T18:50:00.376Z,86.80
2018-08-30T18:52:28.725Z,86.80
2018-08-30T18:54:57.084Z,87.00
2018-08-30T18:57:25.420Z,86.90
2018-08-30T18:59:53.792Z,86.90
2018-08-30T19:02:22.181Z,86.90
2018-08-30T19:04:50.548Z,86.70
2018-08-30T19:07:18.891Z,86.70
2018-08-30T19:09:47.249Z,86.60
2018-08-30T19:12:15.580Z,87.00
2018-08-30T19:14:44.036Z,87.40
2018-08-30T19:17:17.824Z,87.10
2018-08-30T19:19:46.196Z,86.90
2018-08-30T19:22:14.568Z,86.90
2018-08-30T19:24:48.324Z,87.60
2018-08-30T19:27:16.676Z,86.80
2018-08-30T19:29:50.388Z,87.00
2018-08-30T19:32:18.755Z,87.00
2018-08-30T19:34:47.148Z,87.10
2018-08-30T19:37:15.496Z,87.90
2018-08-30T19:39:43.848Z,87.30
2018-08-30T19:42:12.237Z,87.30
2018-08-30T19:44:40.592Z,87.80
2018-08-30T19:47:08.972Z,88.00
2018-08-30T19:49:37.315Z,88.20
2018-08-30T19:52:05.773Z,88.30
2018-08-30T19:54:34.128Z,88.60
2018-08-30T19:57:02.500Z,88.90
2018-08-30T19:59:30.844Z,89.10
2018-08-30T20:01:59.221Z,89.50
2018-08-30T20:04:27.628Z,89.80
2018-08-30T20:06:56.021Z,90.00
2018-08-30T20:09:24.395Z,90.20
2018-08-30T20:11:52.768Z,90.40
2018-08-30T20:14:21.115Z,90.60
2018-08-30T20:16:49.488Z,90.70
2018-08-30T20:19:17.828Z,91.00
2018-08-30T20:21:46.229Z,91.00
2018-08-30T20:24:14.617Z,91.00
2018-08-30T20:26:43.012Z,91.20
2018-08-30T20:29:11.349Z,91.40
2018-08-30T20:31:39.727Z,91.50
2018-08-30T20:34:08.092Z,91.60
2018-08-30T20:36:36.469Z,92.00
2018-08-30T20:39:05.517Z,91.90
2018-08-30T20:41:33.895Z,92.00
2018-08-30T20:44:02.240Z,92.20
2018-08-30T20:46:30.674Z,92.30
2018-08-30T20:48:58.996Z,92.50
2018-08-30T20:51:27.416Z,92.60
2018-08-30T20:53:55.744Z,92.70
2018-08-30T20:56:24.257Z,92.80
2018-08-30T20:58:52.600Z,92.90
2018-08-30T21:01:20.980Z,92.90
2018-08-30T21:03:49.348Z,93.00
2018-08-30T21:06:17.784Z,93.10
2018-08-30T21:08:46.144Z,93.10
2018-08-30T21:11:14.511Z,93.10
2018-08-30T21:13:42.856Z,93.20
2018-08-30T21:16:11.235Z,93.20
2018-08-30T21:18:39.576Z,93.30
2018-08-30T21:21:08.001Z,93.30
2018-08-30T21:23:36.340Z,93.40
2018-08-30T21:26:04.945Z,93.40
2018-08-30T21:28:33.341Z,93.30
2018-08-30T21:31:01.712Z,93.30
2018-08-30T21:33:30.132Z,93.40
2018-08-30T21:35:58.509Z,93.50
2018-08-30T21:38:26.948Z,93.40
2018-08-30T21:40:55.300Z,93.20
2018-08-30T21:43:23.729Z,93.20
2018-08-30T21:45:52.122Z,93.30
2018-08-30T21:48:20.501Z,93.10
2018-08-30T21:50:48.864Z,93.10
2018-08-30T21:53:17.273Z,93.60
2018-08-30T21:55:45.600Z,93.30
2018-08-30T21:58:13.968Z,93.20
2018-08-30T22:00:42.376Z,93.10
2018-08-30T22:03:10.771Z,93.10
2018-08-30T22:05:39.116Z,93.00
2018-08-30T22:08:07.507Z,92.90
2018-08-30T22:10:35.884Z,92.80
2018-08-30T22:13:04.307Z,92.90
2018-08-30T22:15:32.649Z,93.30
2018-08-30T22:18:01.028Z,93.10
2018-08-30T22:20:29.367Z,93.30
2018-08-30T22:22:57.808Z,93.40
2018-08-30T22:25:26.157Z,93.40
2018-08-30T22:27:54.544Z,93.50
2018-08-30T22:30:22.897Z,93.50
2018-08-30T22:32:51.300Z,93.60
2018-08-30T22:35:19.700Z,93.40
2018-08-30T22:37:48.088Z,93.40
2018-08-30T22:40:16.500Z,93.40
2018-08-30T22:42:44.892Z,93.20
2018-08-30T22:45:13.271Z,92.80
2018-08-30T22:47:41.774Z,92.80
2018-08-30T22:50:10.136Z,92.80
2018-08-30T22:52:38.536Z,92.60
2018-08-30T22:55:06.922Z,92.60
2018-08-30T22:57:35.313Z,92.60
2018-08-30T23:00:03.854Z,92.60
2018-08-30T23:02:32.206Z,92.60
2018-08-30T23:05:00.593Z,92.70
2018-08-30T23:07:28.944Z,92.70
2018-08-30T23:09:57.308Z,92.70
2018-08-30T23:12:25.660Z,92.70
2018-08-30T23:14:54.069Z,92.60
2018-08-30T23:17:22.431Z,92.70
2018-08-30T23:19:50.845Z,92.70
2018-08-30T23:22:19.207Z,92.70
2018-08-30T23:24:47.615Z,92.60
2018-08-30T23:27:15.984Z,92.60
2018-08-30T23:29:44.352Z,92.80
2018-08-30T23:32:12.693Z,92.80
2018-08-30T23:34:41.081Z,92.90
2018-08-30T23:37:09.548Z,92.90
2018-08-30T23:39:37.921Z,93.00
2018-08-30T23:42:06.265Z,93.10
2018-08-30T23:44:34.631Z,92.90
2018-08-30T23:47:02.996Z,92.90
2018-08-30T23:49:31.373Z,92.90
2018-08-30T23:51:59.712Z,92.80
2018-08-30T23:54:28.185Z,92.70
2018-08-30T23:56:56.545Z,92.60
2018-08-30T23:59:36.166Z,92.50
